Time;durP1;ratioP1;P1;durP2;ratioP2;P2;SDS_P1;SDS_P2;PMS_P1;PMS_P2;Temp;Humidity;BMP_temperature;BMP_pressure;BME280_temperature;BME280_humidity;BME280_pressure;Samples;Min_cycle;Max_cycle;Signal;HPM_P1;HPM_P2
2023/10/17 00:00:49;;;;;;;17.48;9.07;;;;;;;;;;5103531;27;20387;-84
2023/10/17 00:03:37;;;;;;;12.90;9.30;;;;;;;;;;5102822;27;20031;-82
2023/10/17 00:06:23;;;;;;;13.23;8.55;;;;;;;;;;5104093;27;20028;-84
2023/10/17 00:09:08;;;;;;;13.30;8.23;;;;;;;;;;5098998;27;20044;-81
2023/10/17 00:17:39;;;;;;;13.85;8.35;;;;;;;;;;5106246;27;20048;-80
2023/10/17 00:20:26;;;;;;;11.93;8.50;;;;;;;;;;5103256;27;20035;-88
2023/10/17 00:23:15;;;;;;;16.05;9.05;;;;;;;;;;5096949;27;20508;-84
2023/10/17 00:26:03;;;;;;;15.60;9.63;;;;;;;;;;5096193;27;20360;-82
2023/10/17 00:28:49;;;;;;;13.50;8.63;;;;;;;;;;5096732;27;20047;-83
2023/10/17 00:31:36;;;;;;;15.90;8.65;;;;;;;;;;5098605;27;20039;-86
2023/10/17 00:34:21;;;;;;;15.82;9.45;;;;;;;;;;5104525;27;20035;-83
2023/10/17 00:37:14;;;;;;;16.38;9.55;;;;;;;;;;5097307;27;20455;-82
2023/10/17 00:39:59;;;;;;;20.35;11.73;;;;;;;;;;5099219;27;20039;-83
2023/10/17 00:42:44;;;;;;;18.67;10.73;;;;;;;;;;5103521;27;20417;-83
2023/10/17 00:45:29;;;;;;;16.35;10.02;;;;;;;;;;5104365;27;20125;-81
2023/10/17 00:48:22;;;;;;;17.55;10.10;;;;;;;;;;5101960;27;20050;-84
2023/10/17 00:51:08;;;;;;;18.58;10.73;;;;;;;;;;5096126;27;20389;-85
2023/10/17 00:54:00;;;;;;;20.00;12.25;;;;;;;;;;5087662;27;20042;-83
2023/10/17 00:56:45;;;;;;;22.45;11.73;;;;;;;;;;5101612;27;20389;-84
2023/10/17 00:59:30;;;;;;;19.05;9.70;;;;;;;;;;5094352;27;20493;-80
2023/10/17 01:02:15;;;;;;;15.90;9.90;;;;;;;;;;5103809;27;20723;-83
2023/10/17 01:05:00;;;;;;;14.13;8.65;;;;;;;;;;5101764;27;20024;-83
2023/10/17 01:07:45;;;;;;;16.00;9.40;;;;;;;;;;5104285;27;20027;-82
2023/10/17 01:10:30;;;;;;;14.55;8.57;;;;;;;;;;5102120;27;20467;-83
2023/10/17 01:13:15;;;;;;;11.10;7.72;;;;;;;;;;5101984;27;20366;-83
2023/10/17 01:16:06;;;;;;;12.13;7.93;;;;;;;;;;5087742;27;20035;-85
2023/10/17 01:18:53;;;;;;;14.90;8.15;;;;;;;;;;5095617;28;20035;-80
2023/10/17 01:21:41;;;;;;;13.90;8.00;;;;;;;;;;5101341;27;20375;-83
2023/10/17 01:24:27;;;;;;;15.88;9.07;;;;;;;;;;5088737;27;20501;-85
2023/10/17 01:27:13;;;;;;;15.00;8.73;;;;;;;;;;5090158;27;20035;-81
2023/10/17 01:29:59;;;;;;;13.02;8.57;;;;;;;;;;5110916;27;20039;-81
2023/10/17 01:32:46;;;;;;;12.77;8.25;;;;;;;;;;5109438;27;20048;-81
2023/10/17 01:35:32;;;;;;;17.23;8.48;;;;;;;;;;5105450;27;20039;-82
2023/10/17 01:38:19;;;;;;;13.55;9.00;;;;;;;;;;5103022;27;20447;-83
2023/10/17 01:41:05;;;;;;;13.35;8.63;;;;;;;;;;5093694;28;20039;-80
2023/10/17 01:43:50;;;;;;;14.38;8.73;;;;;;;;;;5099887;27;20036;-82
2023/10/17 01:46:38;;;;;;;14.60;8.35;;;;;;;;;;5101150;27;20478;-84
2023/10/17 01:49:27;;;;;;;12.55;8.45;;;;;;;;;;5093494;28;20379;-85
2023/10/17 01:52:13;;;;;;;14.27;8.38;;;;;;;;;;5086938;27;20552;-82
2023/10/17 01:54:59;;;;;;;13.35;8.27;;;;;;;;;;5102132;27;20355;-81
2023/10/17 01:57:44;;;;;;;18.40;11.43;;;;;;;;;;5088954;27;20035;-81
2023/10/17 02:00:38;;;;;;;14.55;9.32;;;;;;;;;;5088924;27;20477;-83
2023/10/17 02:03:24;;;;;;;15.27;8.77;;;;;;;;;;5105269;27;20039;-83
2023/10/17 02:06:14;;;;;;;13.05;8.75;;;;;;;;;;5098308;28;20363;-85
2023/10/17 02:09:00;;;;;;;14.98;8.77;;;;;;;;;;5101984;27;20387;-83
2023/10/17 02:11:50;;;;;;;13.68;9.23;;;;;;;;;;5104273;27;20489;-80
2023/10/17 02:14:37;;;;;;;13.23;9.40;;;;;;;;;;5103982;27;20040;-82
2023/10/17 02:17:23;;;;;;;16.27;9.52;;;;;;;;;;5103435;27;20031;-84
2023/10/17 02:20:20;;;;;;;15.25;8.43;;;;;;;;;;5099710;27;20101;-82
2023/10/17 02:23:12;;;;;;;14.88;8.73;;;;;;;;;;5106077;27;20036;-83
2023/10/17 02:26:00;;;;;;;10.82;7.78;;;;;;;;;;5090772;27;20040;-89
2023/10/17 02:28:46;;;;;;;14.18;8.13;;;;;;;;;;5098355;27;20058;-82
2023/10/17 02:31:32;;;;;;;13.77;8.77;;;;;;;;;;5100192;27;20480;-83
2023/10/17 02:34:22;;;;;;;15.02;8.57;;;;;;;;;;5108421;27;20040;-81
2023/10/17 02:37:10;;;;;;;11.63;8.10;;;;;;;;;;5106587;27;20035;-85
2023/10/17 02:40:06;;;;;;;12.45;7.97;;;;;;;;;;5102591;27;20060;-84
2023/10/17 02:42:51;;;;;;;13.45;7.78;;;;;;;;;;5102957;27;20371;-84
2023/10/17 02:45:35;;;;;;;10.88;7.32;;;;;;;;;;5109041;27;20517;-82
2023/10/17 02:48:23;;;;;;;10.93;6.93;;;;;;;;;;5098056;27;20039;-79
2023/10/17 02:54:27;;;;;;;10.13;7.22;;;;;;;;;;5097404;27;20043;-82
2023/10/17 02:57:12;;;;;;;11.35;7.47;;;;;;;;;;5102919;27;20035;-82
2023/10/17 03:00:08;;;;;;;10.55;6.88;;;;;;;;;;5096669;27;20372;-82
2023/10/17 03:02:56;;;;;;;11.73;7.18;;;;;;;;;;5103724;27;20481;-81
2023/10/17 03:05:41;;;;;;;10.02;7.35;;;;;;;;;;5103623;27;20438;-82
2023/10/17 03:08:27;;;;;;;12.35;7.55;;;;;;;;;;5104506;27;20043;-85
2023/10/17 03:11:16;;;;;;;13.60;7.60;;;;;;;;;;5103985;27;20362;-83
2023/10/17 03:14:12;;;;;;;10.50;7.75;;;;;;;;;;5096374;27;20407;-81
2023/10/17 03:16:57;;;;;;;14.00;7.70;;;;;;;;;;5097336;27;20039;-79
2023/10/17 03:19:42;;;;;;;12.32;8.05;;;;;;;;;;5105126;27;20039;-83
2023/10/17 03:22:27;;;;;;;15.55;8.30;;;;;;;;;;5103881;27;20028;-83
2023/10/17 03:25:18;;;;;;;13.63;8.20;;;;;;;;;;5103945;27;20466;-84
2023/10/17 03:28:13;;;;;;;12.30;7.43;;;;;;;;;;5089176;27;20044;-83
2023/10/17 03:30:58;;;;;;;10.40;7.30;;;;;;;;;;5105047;27;20035;-85
2023/10/17 03:33:42;;;;;;;13.93;7.93;;;;;;;;;;5107811;27;20043;-83
2023/10/17 03:39:21;;;;;;;12.02;8.00;;;;;;;;;;5106809;27;20394;-84
2023/10/17 03:42:06;;;;;;;11.23;7.80;;;;;;;;;;5106496;27;20031;-82
2023/10/17 03:44:54;;;;;;;13.85;8.05;;;;;;;;;;5106045;27;20040;-85
2023/10/17 03:47:40;;;;;;;13.82;8.30;;;;;;;;;;5107898;27;20035;-81
2023/10/17 03:50:31;;;;;;;13.02;7.75;;;;;;;;;;5107163;27;20039;-83
2023/10/17 03:53:29;;;;;;;12.18;7.80;;;;;;;;;;5094434;27;20363;-84
2023/10/17 03:56:23;;;;;;;19.58;9.05;;;;;;;;;;5095277;27;20030;-83
2023/10/17 03:59:38;;;;;;;14.30;8.80;;;;;;;;;;5109529;27;20371;-83
2023/10/17 04:02:24;;;;;;;14.77;8.85;;;;;;;;;;5110663;27;20451;-83
2023/10/17 04:05:17;;;;;;;20.35;9.98;;;;;;;;;;5113020;27;20043;-81
2023/10/17 04:08:02;;;;;;;19.70;9.80;;;;;;;;;;5117630;27;20035;-81
2023/10/17 04:11:08;;;;;;;14.52;9.02;;;;;;;;;;5113551;27;20039;-87
2023/10/17 04:13:53;;;;;;;;;;;;;;;;;;5101934;27;20457;-82
2023/10/17 04:16:44;;;;;;;22.05;9.10;;;;;;;;;;5107122;27;20277;-83
2023/10/17 04:19:39;;;;;;;16.75;8.98;;;;;;;;;;5090923;27;20450;-84
2023/10/17 04:22:29;;;;;;;14.90;8.57;;;;;;;;;;5092563;27;20039;-79
2023/10/17 04:25:20;;;;;;;19.45;9.25;;;;;;;;;;5106791;27;20043;-85
2023/10/17 04:28:05;;;;;;;19.02;10.82;;;;;;;;;;5103913;27;21477;-81
2023/10/17 04:30:51;;;;;;;19.92;11.35;;;;;;;;;;5099422;27;20399;-85
2023/10/17 04:33:41;;;;;;;24.48;14.05;;;;;;;;;;5104358;27;20385;-81
2023/10/17 04:36:26;;;;;;;27.42;15.52;;;;;;;;;;5099248;27;20469;-80
2023/10/17 04:42:09;;;;;;;33.47;18.10;;;;;;;;;;5108368;27;20042;-80
2023/10/17 04:45:01;;;;;;;19.77;12.52;;;;;;;;;;5111358;27;20030;-82
2023/10/17 04:47:47;;;;;;;15.75;10.50;;;;;;;;;;5100765;27;20481;-81
2023/10/17 04:50:44;;;;;;;14.02;9.80;;;;;;;;;;5105762;27;20481;-82
2023/10/17 04:53:35;;;;;;;13.80;9.88;;;;;;;;;;5099254;27;20039;-82
2023/10/17 04:56:24;;;;;;;18.55;10.48;;;;;;;;;;5091684;27;20039;-82
2023/10/17 04:59:11;;;;;;;20.90;11.95;;;;;;;;;;5098716;27;20042;-83
2023/10/17 05:02:18;;;;;;;19.42;13.07;;;;;;;;;;5096899;27;20058;-83
2023/10/17 06:18:00;;;;;;;28.48;16.95;;;;;;;;;;5107529;27;20045;-84
2023/10/17 06:35:23;;;;;;;28.45;17.27;;;;;;;;;;5112161;27;20042;-80
2023/10/17 06:38:08;;;;;;;32.40;18.10;;;;;;;;;;5104183;27;20391;-82
2023/10/17 06:41:11;;;;;;;26.92;16.02;;;;;;;;;;5110481;27;20050;-84
2023/10/17 06:43:58;;;;;;;30.30;16.02;;;;;;;;;;5115377;27;20038;-83
2023/10/17 06:46:48;;;;;;;29.77;17.10;;;;;;;;;;5108806;27;20050;-83
2023/10/17 06:55:07;;;;;;;31.63;16.85;;;;;;;;;;5104778;27;20042;-85
2023/10/17 06:57:52;;;;;;;26.85;14.98;;;;;;;;;;5104382;27;20045;-85
2023/10/17 07:00:50;;;;;;;27.92;16.42;;;;;;;;;;5105150;27;20054;-82
2023/10/17 07:03:35;;;;;;;25.33;15.52;;;;;;;;;;5106433;27;20047;-82
2023/10/17 07:06:24;;;;;;;22.90;13.35;;;;;;;;;;5093212;27;20035;-83
2023/10/17 07:09:17;;;;;;;21.17;13.65;;;;;;;;;;5094108;27;20397;-83
2023/10/17 07:12:03;;;;;;;22.90;13.70;;;;;;;;;;5111273;27;20477;-84
2023/10/17 07:14:51;;;;;;;19.10;12.25;;;;;;;;;;5097343;27;20398;-83
2023/10/17 07:17:43;;;;;;;24.77;14.13;;;;;;;;;;5104119;27;20046;-84
2023/10/17 07:21:09;;;;;;;24.33;12.88;;;;;;;;;;5113727;27;20073;-83
2023/10/17 07:23:40;;;;;;;19.05;11.77;;;;;;;;;;5104269;27;20039;-82
2023/10/17 07:29:16;;;;;;;25.08;13.32;;;;;;;;;;5102320;27;20066;-84
2023/10/17 07:32:18;;;;;;;34.60;20.45;;;;;;;;;;5100945;27;20034;-81
2023/10/17 07:35:04;;;;;;;27.58;15.57;;;;;;;;;;5102540;27;20373;-84
2023/10/17 07:37:54;;;;;;;25.40;12.73;;;;;;;;;;5101676;27;20378;-83
2023/10/17 07:43:30;;;;;;;44.55;29.33;;;;;;;;;;5108692;27;20047;-85
2023/10/17 07:46:18;;;;;;;17.30;10.80;;;;;;;;;;5107466;27;20046;-86
2023/10/17 07:49:04;;;;;;;18.80;11.55;;;;;;;;;;5097017;27;20049;-82
2023/10/17 07:51:49;;;;;;;19.33;11.60;;;;;;;;;;5103724;27;20047;-84
2023/10/17 07:54:38;;;;;;;13.07;8.45;;;;;;;;;;5099407;27;20896;-84
2023/10/17 07:57:24;;;;;;;20.90;11.15;;;;;;;;;;5103606;27;20464;-82
2023/10/17 08:03:32;;;;;;;19.63;12.25;;;;;;;;;;5033187;28;20033;-84
2023/10/17 08:06:22;;;;;;;;;;;;;;;;;;5037996;28;20411;-80
2023/10/17 08:12:08;;;;;;;16.95;10.45;;;;;;;;;;5102304;27;20038;-84
2023/10/17 08:15:00;;;;;;;17.48;11.32;;;;;;;;;;5095923;27;20394;-81
2023/10/17 08:17:48;;;;;;;20.85;12.15;;;;;;;;;;5095783;27;20229;-86
2023/10/17 08:23:40;;;;;;;21.30;12.00;;;;;;;;;;5098160;27;20374;-85
2023/10/17 08:26:29;;;;;;;20.40;12.48;;;;;;;;;;5104385;27;20394;-84
2023/10/17 08:29:20;;;;;;;20.63;11.88;;;;;;;;;;5098354;27;20078;-84
2023/10/17 08:35:20;;;;;;;19.70;12.20;;;;;;;;;;5110624;27;20047;-83
2023/10/17 08:38:12;;;;;;;22.27;12.73;;;;;;;;;;5104944;27;20410;-88
2023/10/17 08:41:03;;;;;;;22.63;14.05;;;;;;;;;;5104577;27;20069;-82
2023/10/17 08:43:49;;;;;;;21.38;13.48;;;;;;;;;;5104715;27;20398;-82
2023/10/17 08:46:35;;;;;;;23.40;12.88;;;;;;;;;;5095221;27;20054;-83
2023/10/17 08:49:21;;;;;;;29.00;13.88;;;;;;;;;;5088330;27;20387;-85
2023/10/17 08:52:18;;;;;;;31.70;16.10;;;;;;;;;;5104634;27;20047;-82
2023/10/17 08:55:04;;;;;;;21.92;13.55;;;;;;;;;;5106090;27;20652;-85
2023/10/17 08:57:50;;;;;;;33.90;16.20;;;;;;;;;;5098354;27;20488;-81
2023/10/17 09:03:35;;;;;;;27.17;14.20;;;;;;;;;;5104786;27;20390;-83
2023/10/17 09:12:02;;;;;;;26.08;13.18;;;;;;;;;;5102062;27;19930;-82
2023/10/17 09:14:52;;;;;;;30.30;14.57;;;;;;;;;;5099029;27;20053;-81
2023/10/17 09:17:39;;;;;;;22.88;13.52;;;;;;;;;;5101401;27;20046;-83
2023/10/17 09:20:36;;;;;;;18.95;11.82;;;;;;;;;;5104941;27;20405;-82
2023/10/17 09:23:28;;;;;;;17.95;11.00;;;;;;;;;;5106496;27;20047;-80
2023/10/17 09:26:23;;;;;;;15.23;9.68;;;;;;;;;;5101628;27;20386;-85
2023/10/17 09:29:09;;;;;;;22.75;12.55;;;;;;;;;;5095374;28;20047;-82
2023/10/17 09:31:54;;;;;;;26.02;14.00;;;;;;;;;;5103015;27;20046;-84
2023/10/17 09:34:44;;;;;;;24.60;12.68;;;;;;;;;;5096500;28;20042;-81
2023/10/17 09:37:29;;;;;;;30.23;12.45;;;;;;;;;;5096628;28;20047;-84
2023/10/17 09:40:35;;;;;;;28.05;13.20;;;;;;;;;;5095953;28;20038;-82
2023/10/17 09:43:20;;;;;;;26.20;12.10;;;;;;;;;;5104186;27;20039;-82
2023/10/17 09:46:09;;;;;;;29.15;13.07;;;;;;;;;;5088887;27;20046;-83
2023/10/17 09:48:59;;;;;;;19.92;10.85;;;;;;;;;;5094228;27;20390;-83
2023/10/17 09:51:46;;;;;;;23.40;11.65;;;;;;;;;;5102336;27;20042;-83
2023/10/17 09:54:34;;;;;;;22.98;12.20;;;;;;;;;;5094089;28;20513;-80
2023/10/17 09:57:21;;;;;;;16.58;10.70;;;;;;;;;;5102710;27;20043;-83
2023/10/17 10:00:08;;;;;;;26.55;12.15;;;;;;;;;;5103291;27;20054;-82
2023/10/17 10:02:54;;;;;;;25.00;13.05;;;;;;;;;;5103794;27;20046;-86
2023/10/17 10:05:40;;;;;;;17.45;9.52;;;;;;;;;;5100939;27;20478;-82
2023/10/17 10:08:32;;;;;;;29.17;10.65;;;;;;;;;;5100558;27;20035;-82
2023/10/17 10:11:18;;;;;;;21.60;10.18;;;;;;;;;;5098795;27;20509;-82
2023/10/17 10:14:03;;;;;;;17.42;9.52;;;;;;;;;;5086875;27;20484;-81
2023/10/17 10:16:55;;;;;;;22.42;10.93;;;;;;;;;;5095138;28;20031;-86
2023/10/17 10:19:41;;;;;;;21.90;10.07;;;;;;;;;;5101899;27;20478;-85
2023/10/17 10:22:46;;;;;;;22.30;10.65;;;;;;;;;;5101085;27;20054;-83
2023/10/17 10:25:30;;;;;;;23.40;11.15;;;;;;;;;;5102638;27;20493;-83
2023/10/17 10:28:26;;;;;;;19.25;12.90;;;;;;;;;;5102470;27;20136;-84
2023/10/17 10:31:27;;;;;;;16.77;8.88;;;;;;;;;;5103292;28;20390;-81
2023/10/17 10:34:13;;;;;;;22.60;10.27;;;;;;;;;;5113004;27;21242;-83
2023/10/17 10:36:58;;;;;;;16.95;10.20;;;;;;;;;;5109359;27;20055;-80
2023/10/17 10:40:01;;;;;;;21.75;11.77;;;;;;;;;;5109531;27;20038;-82
2023/10/17 10:42:47;;;;;;;23.75;14.43;;;;;;;;;;5105255;27;20394;-80
2023/10/17 10:45:35;;;;;;;21.30;11.93;;;;;;;;;;5109957;27;20101;-88
2023/10/17 10:48:21;;;;;;;26.92;12.40;;;;;;;;;;5105763;27;20528;-82
2023/10/17 10:51:13;;;;;;;24.25;12.25;;;;;;;;;;5099164;27;20050;-81
2023/10/17 10:53:58;;;;;;;36.33;16.88;;;;;;;;;;5097674;27;20039;-79
2023/10/17 10:56:49;;;;;;;61.00;24.42;;;;;;;;;;5106255;27;20406;-81
2023/10/17 10:59:34;;;;;;;32.83;13.73;;;;;;;;;;5090809;27;20042;-83
2023/10/17 11:02:20;;;;;;;46.42;19.60;;;;;;;;;;5106393;27;20045;-86
2023/10/17 11:05:05;;;;;;;25.27;13.82;;;;;;;;;;5100257;27;20488;-81
2023/10/17 11:07:58;;;;;;;35.22;14.05;;;;;;;;;;5098180;27;20054;-82
2023/10/17 11:10:43;;;;;;;27.88;13.65;;;;;;;;;;5097884;27;20058;-82
2023/10/17 11:13:32;;;;;;;31.08;12.23;;;;;;;;;;5098235;27;20050;-86
2023/10/17 11:16:18;;;;;;;27.63;11.45;;;;;;;;;;5098197;27;20046;-84
2023/10/17 11:19:04;;;;;;;28.85;11.60;;;;;;;;;;5105083;27;20497;-84
2023/10/17 11:21:58;;;;;;;20.67;10.48;;;;;;;;;;5106041;27;20043;-82
2023/10/17 11:24:44;;;;;;;22.25;11.77;;;;;;;;;;5105160;27;20390;-82
2023/10/17 11:27:32;;;;;;;23.20;12.45;;;;;;;;;;5097545;27;20054;-83
2023/10/17 11:30:20;;;;;;;17.95;9.63;;;;;;;;;;5104127;27;20493;-85
2023/10/17 11:33:08;;;;;;;17.42;10.13;;;;;;;;;;5103677;27;20043;-86
2023/10/17 11:35:53;;;;;;;19.20;9.75;;;;;;;;;;5104045;27;20462;-85
2023/10/17 11:38:40;;;;;;;25.20;13.35;;;;;;;;;;5090687;27;20376;-81
2023/10/17 11:41:30;;;;;;;26.70;14.02;;;;;;;;;;5104002;27;20042;-85
2023/10/17 11:44:15;;;;;;;21.00;10.35;;;;;;;;;;5102846;27;20050;-84
2023/10/17 11:47:20;;;;;;;32.00;9.48;;;;;;;;;;5088856;27;20050;-83
2023/10/17 11:50:05;;;;;;;16.38;9.80;;;;;;;;;;5100068;27;20032;-83
2023/10/17 11:52:51;;;;;;;18.00;9.10;;;;;;;;;;5109038;27;20031;-83
2023/10/17 11:55:40;;;;;;;16.13;9.27;;;;;;;;;;5099678;27;20031;-86
2023/10/17 11:58:28;;;;;;;22.63;11.07;;;;;;;;;;5103810;27;20355;-81
2023/10/17 12:01:14;;;;;;;19.02;10.35;;;;;;;;;;5103298;27;20049;-82
2023/10/17 12:04:01;;;;;;;24.38;10.02;;;;;;;;;;5103419;27;20042;-82
2023/10/17 12:06:45;;;;;;;28.10;13.90;;;;;;;;;;5102020;27;20049;-84
2023/10/17 12:09:31;;;;;;;14.57;9.13;;;;;;;;;;5104337;27;20472;-82
2023/10/17 12:12:19;;;;;;;23.10;10.88;;;;;;;;;;5096745;27;20027;-84
2023/10/17 12:15:04;;;;;;;17.05;9.98;;;;;;;;;;5102310;27;20492;-84
2023/10/17 12:17:50;;;;;;;20.40;10.70;;;;;;;;;;5104167;27;20568;-82
2023/10/17 12:20:40;;;;;;;14.15;8.32;;;;;;;;;;5106399;27;20284;-81
2023/10/17 12:23:29;;;;;;;18.73;9.23;;;;;;;;;;5104798;27;20498;-82
2023/10/17 12:26:14;;;;;;;17.85;9.55;;;;;;;;;;5106002;27;20667;-85
2023/10/17 12:29:00;;;;;;;14.35;8.45;;;;;;;;;;5107112;27;20059;-82
2023/10/17 12:31:45;;;;;;;16.50;9.98;;;;;;;;;;5109940;27;20493;-83
2023/10/17 12:34:31;;;;;;;18.58;9.00;;;;;;;;;;5102887;27;20036;-82
2023/10/17 12:37:17;;;;;;;14.73;8.10;;;;;;;;;;5102057;27;20471;-80
2023/10/17 12:40:05;;;;;;;15.88;8.80;;;;;;;;;;5102522;27;20486;-82
2023/10/17 12:42:51;;;;;;;12.35;8.13;;;;;;;;;;5096134;27;20466;-81
2023/10/17 12:45:36;;;;;;;12.95;7.38;;;;;;;;;;5099702;27;20043;-83
2023/10/17 12:48:21;;;;;;;13.45;8.15;;;;;;;;;;5097633;27;20197;-85
2023/10/17 12:51:11;;;;;;;22.02;9.18;;;;;;;;;;5102452;27;20031;-84
2023/10/17 12:53:56;;;;;;;14.90;8.55;;;;;;;;;;5103045;27;20032;-82
2023/10/17 12:56:42;;;;;;;14.50;8.20;;;;;;;;;;5104487;27;20367;-85
2023/10/17 12:59:26;;;;;;;16.02;8.60;;;;;;;;;;5103232;27;20367;-82
2023/10/17 13:02:12;;;;;;;18.98;9.40;;;;;;;;;;5103299;27;20489;-82
2023/10/17 13:04:58;;;;;;;19.92;9.95;;;;;;;;;;5087781;27;20040;-81
2023/10/17 13:07:43;;;;;;;26.52;13.60;;;;;;;;;;5104676;27;20031;-81
2023/10/17 13:10:28;;;;;;;17.73;8.90;;;;;;;;;;5106287;27;20034;-83
2023/10/17 13:13:13;;;;;;;13.32;8.07;;;;;;;;;;5112920;27;20367;-81
2023/10/17 13:15:59;;;;;;;14.80;8.35;;;;;;;;;;5107689;27;20031;-84
2023/10/17 13:18:47;;;;;;;15.20;7.90;;;;;;;;;;5104249;27;20031;-82
2023/10/17 13:21:39;;;;;;;13.57;8.70;;;;;;;;;;5091889;27;20056;-83
2023/10/17 13:24:26;;;;;;;14.52;9.05;;;;;;;;;;5101313;27;20039;-83
2023/10/17 13:27:11;;;;;;;14.95;9.25;;;;;;;;;;5103616;27;20371;-83
2023/10/17 13:29:55;;;;;;;18.05;9.52;;;;;;;;;;5102565;27;20489;-82
2023/10/17 13:32:42;;;;;;;14.68;9.85;;;;;;;;;;5103579;27;20043;-84
2023/10/17 13:35:28;;;;;;;19.83;10.48;;;;;;;;;;5101109;27;20380;-82
2023/10/17 13:38:13;;;;;;;17.85;8.98;;;;;;;;;;5102523;27;20863;-82
2023/10/17 13:41:02;;;;;;;15.45;9.45;;;;;;;;;;5095284;28;20036;-84
2023/10/17 13:43:48;;;;;;;15.88;10.18;;;;;;;;;;5099943;27;20031;-83
2023/10/17 13:46:35;;;;;;;16.13;8.70;;;;;;;;;;5102111;27;20054;-82
2023/10/17 13:49:20;;;;;;;16.40;8.60;;;;;;;;;;5101790;27;20362;-80
2023/10/17 13:52:05;;;;;;;16.55;8.68;;;;;;;;;;5101381;27;20039;-80
2023/10/17 13:54:50;;;;;;;22.50;11.48;;;;;;;;;;5102360;27;20043;-82
2023/10/17 13:57:36;;;;;;;21.75;9.98;;;;;;;;;;5095461;28;20046;-82
2023/10/17 14:00:22;;;;;;;21.33;10.82;;;;;;;;;;5099593;27;20035;-82
2023/10/17 14:03:07;;;;;;;21.55;11.20;;;;;;;;;;5097111;28;20433;-82
2023/10/17 14:06:20;;;;;;;18.25;10.27;;;;;;;;;;5096448;28;20034;-81
2023/10/17 14:09:15;;;;;;;18.02;10.18;;;;;;;;;;5093818;28;20387;-83
2023/10/17 14:12:00;;;;;;;18.57;10.10;;;;;;;;;;5098163;27;20038;-82
2023/10/17 14:14:46;;;;;;;15.77;9.07;;;;;;;;;;5104601;27;20295;-81
2023/10/17 14:17:32;;;;;;;20.05;10.70;;;;;;;;;;5103755;27;20495;-80
2023/10/17 14:20:38;;;;;;;23.40;13.82;;;;;;;;;;5104150;27;20394;-81
2023/10/17 14:23:26;;;;;;;23.17;12.70;;;;;;;;;;5105365;27;20046;-81
2023/10/17 14:26:11;;;;;;;20.83;13.65;;;;;;;;;;5109513;27;20034;-82
2023/10/17 14:29:00;;;;;;;23.20;12.80;;;;;;;;;;5100459;27;20059;-82
2023/10/17 14:31:46;;;;;;;16.00;9.30;;;;;;;;;;5104953;27;20054;-81
2023/10/17 14:34:32;;;;;;;12.40;8.77;;;;;;;;;;5097240;27;20039;-81
2023/10/17 14:37:17;;;;;;;15.93;9.43;;;;;;;;;;5107560;27;20483;-81
2023/10/17 14:40:11;;;;;;;17.38;9.35;;;;;;;;;;5103570;27;20035;-80
2023/10/17 14:42:58;;;;;;;17.83;10.40;;;;;;;;;;5103646;27;20476;-83
2023/10/17 14:45:44;;;;;;;21.02;10.65;;;;;;;;;;5088445;27;20043;-83
2023/10/17 14:48:30;;;;;;;20.42;9.52;;;;;;;;;;5101813;27;20034;-82
2023/10/17 14:51:15;;;;;;;19.40;8.57;;;;;;;;;;5105608;27;20378;-80
2023/10/17 14:54:08;;;;;;;18.30;9.27;;;;;;;;;;5103613;27;20477;-80
2023/10/17 14:56:53;;;;;;;18.88;10.50;;;;;;;;;;5104305;27;21805;-80
2023/10/17 14:59:40;;;;;;;17.83;9.50;;;;;;;;;;5105085;27;20406;-82
2023/10/17 15:02:26;;;;;;;19.20;10.07;;;;;;;;;;5101352;27;20492;-82
2023/10/17 15:05:14;;;;;;;18.73;9.68;;;;;;;;;;5096788;27;20050;-81
2023/10/17 15:07:59;;;;;;;17.88;9.80;;;;;;;;;;5089154;27;20035;-80
2023/10/17 15:10:43;;;;;;;16.98;9.05;;;;;;;;;;5097959;27;20383;-79
2023/10/17 15:13:29;;;;;;;17.55;8.45;;;;;;;;;;5104629;27;20036;-86
2023/10/17 15:16:19;;;;;;;18.65;8.95;;;;;;;;;;5097322;27;20430;-83
2023/10/17 15:19:04;;;;;;;14.57;9.93;;;;;;;;;;5104763;27;20043;-82
2023/10/17 15:21:49;;;;;;;14.48;9.27;;;;;;;;;;5102243;27;20039;-82
2023/10/17 15:24:33;;;;;;;17.98;9.32;;;;;;;;;;5103997;27;20031;-82
2023/10/17 15:27:18;;;;;;;17.10;7.95;;;;;;;;;;5100993;27;20462;-82
2023/10/17 15:30:04;;;;;;;16.10;8.52;;;;;;;;;;5102442;27;20371;-84
2023/10/17 15:32:50;;;;;;;15.25;9.48;;;;;;;;;;5103086;27;20359;-84
2023/10/17 15:35:35;;;;;;;23.00;13.20;;;;;;;;;;5086869;27;20478;-84
2023/10/17 15:38:22;;;;;;;41.13;18.55;;;;;;;;;;5100932;27;20576;-82
2023/10/17 15:41:10;;;;;;;27.77;15.73;;;;;;;;;;5088457;27;20054;-85
2023/10/17 15:43:54;;;;;;;27.13;15.68;;;;;;;;;;5100972;27;20043;-82
2023/10/17 15:46:40;;;;;;;40.28;18.90;;;;;;;;;;5086186;27;20046;-80
2023/10/17 15:49:25;;;;;;;53.25;26.02;;;;;;;;;;5097627;27;20496;-80
2023/10/17 15:52:10;;;;;;;46.60;24.88;;;;;;;;;;5104697;27;20453;-79
2023/10/17 15:54:55;;;;;;;56.67;27.33;;;;;;;;;;5104545;27;20433;-80
2023/10/17 15:57:41;;;;;;;48.83;25.48;;;;;;;;;;5096687;27;20042;-79
2023/10/17 16:00:26;;;;;;;38.85;21.90;;;;;;;;;;5096561;27;20047;-81
2023/10/17 16:03:16;;;;;;;38.03;20.83;;;;;;;;;;5096910;27;20371;-80
2023/10/17 16:06:01;;;;;;;48.75;23.88;;;;;;;;;;5103239;27;20045;-79
2023/10/17 16:08:49;;;;;;;46.05;24.58;;;;;;;;;;5101245;27;20179;-81
2023/10/17 16:11:33;;;;;;;48.08;25.45;;;;;;;;;;5096385;27;20494;-79
2023/10/17 16:14:18;;;;;;;40.55;23.30;;;;;;;;;;5104487;27;20544;-80
2023/10/17 16:17:03;;;;;;;184.40;65.05;;;;;;;;;;5103654;27;20047;-80
2023/10/17 16:19:49;;;;;;;293.10;104.18;;;;;;;;;;5096753;27;20046;-82
2023/10/17 16:22:35;;;;;;;332.40;120.68;;;;;;;;;;5102959;27;20045;-80
2023/10/17 16:25:24;;;;;;;78.28;35.42;;;;;;;;;;5098660;27;20035;-81
2023/10/17 16:28:10;;;;;;;198.95;77.65;;;;;;;;;;5099553;27;20050;-81
2023/10/17 16:30:55;;;;;;;116.97;49.75;;;;;;;;;;5099003;27;20581;-82
2023/10/17 16:33:40;;;;;;;99.35;44.65;;;;;;;;;;5093786;27;20396;-81
2023/10/17 16:36:25;;;;;;;85.22;40.25;;;;;;;;;;5103046;27;20370;-81
2023/10/17 16:39:10;;;;;;;72.82;35.85;;;;;;;;;;5099765;27;20046;-82
2023/10/17 16:41:55;;;;;;;88.95;41.35;;;;;;;;;;5098858;27;20500;-83
2023/10/17 16:44:41;;;;;;;94.03;46.08;;;;;;;;;;5101003;27;20109;-81
2023/10/17 16:47:26;;;;;;;133.35;67.00;;;;;;;;;;5099268;27;20464;-82
2023/10/17 16:50:17;;;;;;;114.28;58.97;;;;;;;;;;5102274;27;20050;-81
2023/10/17 16:53:03;;;;;;;113.63;52.83;;;;;;;;;;5102418;27;20461;-82
2023/10/17 16:55:49;;;;;;;112.28;52.88;;;;;;;;;;5102504;27;20583;-81
2023/10/17 16:58:37;;;;;;;125.45;52.83;;;;;;;;;;5093543;27;20397;-81
2023/10/17 17:01:24;;;;;;;105.25;52.15;;;;;;;;;;5100918;27;20054;-79
2023/10/17 17:04:11;;;;;;;99.80;46.85;;;;;;;;;;5099687;27;20050;-78
2023/10/17 17:06:56;;;;;;;79.07;39.17;;;;;;;;;;5101418;27;20461;-83
2023/10/17 17:09:40;;;;;;;79.90;38.88;;;;;;;;;;5100808;27;20043;-82
2023/10/17 17:12:26;;;;;;;59.83;30.20;;;;;;;;;;5102856;27;20038;-80
2023/10/17 17:15:12;;;;;;;58.13;30.85;;;;;;;;;;5097556;27;20034;-79
2023/10/17 17:18:00;;;;;;;49.60;26.95;;;;;;;;;;5095890;27;20509;-80
2023/10/17 17:20:45;;;;;;;44.15;25.63;;;;;;;;;;5102045;27;20402;-78
2023/10/17 17:23:31;;;;;;;53.00;24.83;;;;;;;;;;5101319;27;20050;-80
2023/10/17 17:26:16;;;;;;;112.47;54.92;;;;;;;;;;5101364;27;20042;-78
2023/10/17 17:29:07;;;;;;;49.83;26.58;;;;;;;;;;5098374;27;20075;-79
2023/10/17 17:31:51;;;;;;;57.42;31.25;;;;;;;;;;5103115;27;20046;-81
2023/10/17 17:34:36;;;;;;;58.75;33.00;;;;;;;;;;5103510;27;20392;-79
2023/10/17 17:37:21;;;;;;;81.97;43.92;;;;;;;;;;5099608;27;20489;-81
2023/10/17 17:40:07;;;;;;;79.25;41.53;;;;;;;;;;5102270;27;20484;-82
2023/10/17 17:42:53;;;;;;;77.03;38.78;;;;;;;;;;5100828;27;20378;-79
2023/10/17 17:45:41;;;;;;;73.25;37.63;;;;;;;;;;5096136;27;20046;-79
2023/10/17 17:48:26;;;;;;;65.50;33.90;;;;;;;;;;5097736;27;20309;-81
2023/10/17 17:51:13;;;;;;;71.85;32.47;;;;;;;;;;5104607;27;20398;-80
2023/10/17 17:53:58;;;;;;;76.15;35.60;;;;;;;;;;5101523;27;20109;-81
2023/10/17 17:56:44;;;;;;;94.40;39.47;;;;;;;;;;5097200;27;20034;-79
2023/10/17 17:59:32;;;;;;;98.18;43.92;;;;;;;;;;5104082;27;20565;-79
2023/10/17 18:02:19;;;;;;;94.53;46.35;;;;;;;;;;5103757;27;20393;-79
2023/10/17 18:05:04;;;;;;;86.45;40.58;;;;;;;;;;5104924;27;20410;-82
2023/10/17 18:07:50;;;;;;;87.22;43.17;;;;;;;;;;5099990;27;20050;-80
2023/10/17 18:10:36;;;;;;;85.00;42.22;;;;;;;;;;5104526;27;20050;-79
2023/10/17 18:13:26;;;;;;;71.03;38.60;;;;;;;;;;5104168;27;20068;-79
2023/10/17 18:16:14;;;;;;;64.05;33.80;;;;;;;;;;5104282;27;20047;-81
2023/10/17 18:18:59;;;;;;;100.20;40.80;;;;;;;;;;5104298;27;20046;-80
2023/10/17 18:21:45;;;;;;;109.03;44.47;;;;;;;;;;5106560;27;20054;-79
2023/10/17 18:24:31;;;;;;;119.72;50.20;;;;;;;;;;5105962;27;20038;-82
2023/10/17 18:27:16;;;;;;;105.40;42.97;;;;;;;;;;5105135;27;20030;-80
2023/10/17 18:30:01;;;;;;;108.90;46.10;;;;;;;;;;5098316;27;20066;-81
2023/10/17 18:32:47;;;;;;;64.15;29.77;;;;;;;;;;5106703;27;20050;-80
2023/10/17 18:35:34;;;;;;;45.75;23.40;;;;;;;;;;5099331;27;20505;-82
2023/10/17 18:38:19;;;;;;;31.25;19.90;;;;;;;;;;5104763;27;20038;-80